sensor_id;sensor_type;location;lat;lon;timestamp;pressure;altitude;pressure_sealevel;temperature;humidity
40502;BME280;29631;49.168;9.848;2022-11-02T00:02:07;97233.00;;;18.22;86.47
40502;BME280;29631;49.168;9.848;2022-11-02T00:04:33;97238.34;;;18.22;87.52
40502;BME280;29631;49.168;9.848;2022-11-02T00:06:59;97226.94;;;18.15;86.64
40502;BME280;29631;49.168;9.848;2022-11-02T00:09:24;97229.03;;;18.13;86.88
40502;BME280;29631;49.168;9.848;2022-11-02T00:11:50;97207.59;;;18.08;87.34
40502;BME280;29631;49.168;9.848;2022-11-02T00:14:16;97219.19;;;18.14;86.78
40502;BME280;29631;49.168;9.848;2022-11-02T00:16:41;97231.38;;;18.21;86.74
40502;BME280;29631;49.168;9.848;2022-11-02T00:19:08;97225.91;;;18.16;87.31
40502;BME280;29631;49.168;9.848;2022-11-02T00:21:34;97239.97;;;18.23;86.81
40502;BME280;29631;49.168;9.848;2022-11-02T00:24:01;97231.69;;;18.24;86.72
40502;BME280;29631;49.168;9.848;2022-11-02T00:26:30;97232.19;;;18.10;86.45
40502;BME280;29631;49.168;9.848;2022-11-02T00:28:57;97237.31;;;18.00;86.90
40502;BME280;29631;49.168;9.848;2022-11-02T00:31:23;97232.25;;;17.87;87.80
40502;BME280;29631;49.168;9.848;2022-11-02T00:33:50;97176.22;;;17.48;87.26
40502;BME280;29631;49.168;9.848;2022-11-02T00:36:16;97224.06;;;17.77;86.97
40502;BME280;29631;49.168;9.848;2022-11-02T00:38:42;97221.16;;;17.67;86.91
40502;BME280;29631;49.168;9.848;2022-11-02T00:41:07;97224.22;;;17.59;87.25
40502;BME280;29631;49.168;9.848;2022-11-02T00:43:33;97234.97;;;17.64;87.51
40502;BME280;29631;49.168;9.848;2022-11-02T00:45:59;97226.53;;;17.56;87.62
40502;BME280;29631;49.168;9.848;2022-11-02T00:48:25;97248.31;;;17.76;87.26
40502;BME280;29631;49.168;9.848;2022-11-02T00:50:51;97218.97;;;17.64;87.40
40502;BME280;29631;49.168;9.848;2022-11-02T00:53:17;97241.34;;;17.75;87.51
40502;BME280;29631;49.168;9.848;2022-11-02T00:55:43;97242.81;;;17.82;86.78
40502;BME280;29631;49.168;9.848;2022-11-02T00:58:09;97227.75;;;17.76;86.69
40502;BME280;29631;49.168;9.848;2022-11-02T01:00:34;97234.22;;;17.80;86.54
40502;BME280;29631;49.168;9.848;2022-11-02T01:03:01;97220.78;;;17.75;87.05
40502;BME280;29631;49.168;9.848;2022-11-02T01:05:27;97233.09;;;17.76;86.71
40502;BME280;29631;49.168;9.848;2022-11-02T01:07:53;97231.47;;;17.75;86.94
40502;BME280;29631;49.168;9.848;2022-11-02T01:10:19;97226.63;;;17.72;86.56
40502;BME280;29631;49.168;9.848;2022-11-02T01:12:45;97235.66;;;17.71;86.50
40502;BME280;29631;49.168;9.848;2022-11-02T01:15:10;97219.56;;;17.66;86.74
40502;BME280;29631;49.168;9.848;2022-11-02T01:17:37;97213.41;;;17.54;86.75
40502;BME280;29631;49.168;9.848;2022-11-02T01:20:04;97227.78;;;17.65;86.38
40502;BME280;29631;49.168;9.848;2022-11-02T01:22:30;97233.69;;;17.67;86.24
40502;BME280;29631;49.168;9.848;2022-11-02T01:24:57;97218.50;;;17.67;86.65
40502;BME280;29631;49.168;9.848;2022-11-02T01:27:22;97214.91;;;17.62;85.97
40502;BME280;29631;49.168;9.848;2022-11-02T01:29:48;97223.97;;;17.61;86.04
40502;BME280;29631;49.168;9.848;2022-11-02T01:32:14;97212.63;;;17.43;86.02
40502;BME280;29631;49.168;9.848;2022-11-02T01:34:40;97219.69;;;17.48;86.11
40502;BME280;29631;49.168;9.848;2022-11-02T01:37:05;97234.28;;;17.57;86.26
40502;BME280;29631;49.168;9.848;2022-11-02T01:39:31;97198.34;;;17.26;86.24
40502;BME280;29631;49.168;9.848;2022-11-02T01:41:57;97217.75;;;17.44;85.85
40502;BME280;29631;49.168;9.848;2022-11-02T01:44:34;97220.16;;;17.46;86.51
40502;BME280;29631;49.168;9.848;2022-11-02T01:47:07;97213.31;;;17.38;85.93
40502;BME280;29631;49.168;9.848;2022-11-02T01:49:41;97224.31;;;17.42;85.86
40502;BME280;29631;49.168;9.848;2022-11-02T01:52:37;97216.56;;;17.40;85.90
40502;BME280;29631;49.168;9.848;2022-11-02T01:57:55;97230.13;;;17.39;86.15
40502;BME280;29631;49.168;9.848;2022-11-02T02:00:22;97208.69;;;17.34;85.70
40502;BME280;29631;49.168;9.848;2022-11-02T02:03:09;97210.88;;;17.37;85.98
40502;BME280;29631;49.168;9.848;2022-11-02T02:05:55;97228.06;;;17.41;86.32
40502;BME280;29631;49.168;9.848;2022-11-02T02:08:24;97219.47;;;17.39;86.12
40502;BME280;29631;49.168;9.848;2022-11-02T02:10:50;97211.94;;;17.36;85.25
40502;BME280;29631;49.168;9.848;2022-11-02T02:13:16;97198.34;;;17.26;85.25
40502;BME280;29631;49.168;9.848;2022-11-02T02:18:45;97189.44;;;17.20;85.17
40502;BME280;29631;49.168;9.848;2022-11-02T02:21:42;97207.38;;;17.25;85.55
40502;BME280;29631;49.168;9.848;2022-11-02T02:24:32;97210.41;;;17.17;85.91
40502;BME280;29631;49.168;9.848;2022-11-02T02:27:22;97200.09;;;17.09;85.33
40502;BME280;29631;49.168;9.848;2022-11-02T02:30:08;97188.06;;;16.95;85.52
40502;BME280;29631;49.168;9.848;2022-11-02T02:38:03;97195.09;;;16.78;85.43
40502;BME280;29631;49.168;9.848;2022-11-02T02:40:38;97171.09;;;16.55;85.23
40502;BME280;29631;49.168;9.848;2022-11-02T02:43:17;97184.41;;;16.55;86.03
40502;BME280;29631;49.168;9.848;2022-11-02T02:45:59;97195.78;;;16.62;85.61
40502;BME280;29631;49.168;9.848;2022-11-02T02:48:25;97146.34;;;16.25;85.83
40502;BME280;29631;49.168;9.848;2022-11-02T02:51:13;97204.09;;;16.54;85.06
40502;BME280;29631;49.168;9.848;2022-11-02T02:53:45;97198.53;;;16.44;85.66
40502;BME280;29631;49.168;9.848;2022-11-02T02:56:13;97181.34;;;16.40;85.55
40502;BME280;29631;49.168;9.848;2022-11-02T02:59:02;97175.31;;;16.33;85.58
40502;BME280;29631;49.168;9.848;2022-11-02T03:01:30;97182.75;;;16.31;85.94
40502;BME280;29631;49.168;9.848;2022-11-02T03:03:56;97194.19;;;16.32;85.74
40502;BME280;29631;49.168;9.848;2022-11-02T03:06:32;97175.47;;;16.20;85.54
40502;BME280;29631;49.168;9.848;2022-11-02T03:12:20;97186.00;;;16.15;86.05
40502;BME280;29631;49.168;9.848;2022-11-02T03:15:06;97178.47;;;16.12;86.25
40502;BME280;29631;49.168;9.848;2022-11-02T03:18:00;97187.16;;;16.19;85.79
40502;BME280;29631;49.168;9.848;2022-11-02T03:23:38;97192.47;;;16.19;86.06
40502;BME280;29631;49.168;9.848;2022-11-02T03:26:21;97167.50;;;16.09;85.88
40502;BME280;29631;49.168;9.848;2022-11-02T03:29:12;97198.72;;;16.31;85.78
40502;BME280;29631;49.168;9.848;2022-11-02T03:31:48;97199.75;;;16.42;86.28
40502;BME280;29631;49.168;9.848;2022-11-02T03:34:22;97203.25;;;16.42;86.55
40502;BME280;29631;49.168;9.848;2022-11-02T03:37:13;97199.75;;;16.42;86.52
40502;BME280;29631;49.168;9.848;2022-11-02T03:39:56;97193.63;;;16.41;86.55
40502;BME280;29631;49.168;9.848;2022-11-02T03:42:26;97193.56;;;16.48;85.82
40502;BME280;29631;49.168;9.848;2022-11-02T03:44:58;97194.34;;;16.48;86.09
40502;BME280;29631;49.168;9.848;2022-11-02T03:47:27;97174.41;;;16.39;85.72
40502;BME280;29631;49.168;9.848;2022-11-02T03:49:56;97172.78;;;16.38;85.59
40502;BME280;29631;49.168;9.848;2022-11-02T03:52:28;97171.19;;;16.37;86.31
40502;BME280;29631;49.168;9.848;2022-11-02T03:55:17;97198.75;;;16.54;86.16
40502;BME280;29631;49.168;9.848;2022-11-02T03:57:49;97191.22;;;16.51;86.43
40502;BME280;29631;49.168;9.848;2022-11-02T04:00:21;97198.75;;;16.54;86.81
40502;BME280;29631;49.168;9.848;2022-11-02T04:02:52;97148.06;;;16.20;85.55
40502;BME280;29631;49.168;9.848;2022-11-02T04:05:18;97203.41;;;16.59;86.21
40502;BME280;29631;49.168;9.848;2022-11-02T04:07:48;97191.00;;;16.53;86.07
40502;BME280;29631;49.168;9.848;2022-11-02T04:10:34;97186.47;;;16.53;86.46
40502;BME280;29631;49.168;9.848;2022-11-02T04:13:00;97183.22;;;16.51;86.36
40502;BME280;29631;49.168;9.848;2022-11-02T04:15:44;97202.00;;;16.56;86.02
40502;BME280;29631;49.168;9.848;2022-11-02T04:18:10;97194.59;;;16.58;86.17
40502;BME280;29631;49.168;9.848;2022-11-02T04:20:54;97203.16;;;16.60;85.86
40502;BME280;29631;49.168;9.848;2022-11-02T04:23:20;97205.72;;;16.55;85.95
40502;BME280;29631;49.168;9.848;2022-11-02T04:26:04;97207.91;;;16.58;86.33
40502;BME280;29631;49.168;9.848;2022-11-02T04:28:30;97211.84;;;16.56;86.17
40502;BME280;29631;49.168;9.848;2022-11-02T04:30:59;97220.78;;;16.61;85.99
40502;BME280;29631;49.168;9.848;2022-11-02T04:33:25;97218.00;;;16.56;86.01
40502;BME280;29631;49.168;9.848;2022-11-02T04:36:03;97222.41;;;16.62;85.86
40502;BME280;29631;49.168;9.848;2022-11-02T04:38:29;97228.06;;;16.66;86.35
40502;BME280;29631;49.168;9.848;2022-11-02T04:41:19;97218.09;;;16.61;86.16
40502;BME280;29631;49.168;9.848;2022-11-02T04:44:05;97211.75;;;16.62;85.86
40502;BME280;29631;49.168;9.848;2022-11-02T04:46:34;97214.06;;;16.59;85.83
40502;BME280;29631;49.168;9.848;2022-11-02T04:49:00;97206.16;;;16.52;85.37
40502;BME280;29631;49.168;9.848;2022-11-02T04:51:27;97222.97;;;16.64;86.15
40502;BME280;29631;49.168;9.848;2022-11-02T04:53:55;97169.66;;;16.30;85.84
40502;BME280;29631;49.168;9.848;2022-11-02T04:56:22;97219.63;;;16.57;86.51
40502;BME280;29631;49.168;9.848;2022-11-02T04:58:49;97222.84;;;16.59;86.48
40502;BME280;29631;49.168;9.848;2022-11-02T05:01:17;97213.56;;;16.50;86.12
40502;BME280;29631;49.168;9.848;2022-11-02T05:03:49;97217.28;;;16.49;86.25
40502;BME280;29631;49.168;9.848;2022-11-02T05:06:17;97210.50;;;16.35;86.08
40502;BME280;29631;49.168;9.848;2022-11-02T05:08:43;97237.53;;;16.50;86.31
40502;BME280;29631;49.168;9.848;2022-11-02T05:11:09;97243.41;;;16.52;86.42
40502;BME280;29631;49.168;9.848;2022-11-02T05:13:37;97184.81;;;16.29;85.91
40502;BME280;29631;49.168;9.848;2022-11-02T05:16:04;97212.38;;;16.46;85.97
40502;BME280;29631;49.168;9.848;2022-11-02T05:18:31;97205.06;;;16.42;85.83
40502;BME280;29631;49.168;9.848;2022-11-02T05:21:00;97233.25;;;16.49;86.12
40502;BME280;29631;49.168;9.848;2022-11-02T05:23:27;97223.94;;;16.40;85.92
40502;BME280;29631;49.168;9.848;2022-11-02T05:26:00;97233.13;;;16.44;85.74
40502;BME280;29631;49.168;9.848;2022-11-02T05:28:28;97243.16;;;16.42;86.51
40502;BME280;29631;49.168;9.848;2022-11-02T05:30:54;97256.25;;;16.44;86.36
40502;BME280;29631;49.168;9.848;2022-11-02T05:33:20;97263.19;;;16.45;85.94
40502;BME280;29631;49.168;9.848;2022-11-02T05:35:46;97253.81;;;16.42;86.23
40502;BME280;29631;49.168;9.848;2022-11-02T05:38:12;97240.38;;;16.37;86.13
40502;BME280;29631;49.168;9.848;2022-11-02T05:40:38;97251.16;;;16.42;85.96
40502;BME280;29631;49.168;9.848;2022-11-02T05:43:09;97243.59;;;16.39;85.88
40502;BME280;29631;49.168;9.848;2022-11-02T05:45:36;97266.66;;;16.45;85.76
40502;BME280;29631;49.168;9.848;2022-11-02T05:48:03;97248.69;;;16.29;85.89
40502;BME280;29631;49.168;9.848;2022-11-02T05:50:31;97217.75;;;15.99;86.12
40502;BME280;29631;49.168;9.848;2022-11-02T05:52:57;97238.19;;;16.16;86.50
40502;BME280;29631;49.168;9.848;2022-11-02T05:55:23;97229.00;;;16.12;86.12
40502;BME280;29631;49.168;9.848;2022-11-02T05:57:54;97257.97;;;16.20;85.94
40502;BME280;29631;49.168;9.848;2022-11-02T06:00:21;97251.00;;;16.19;86.34
40502;BME280;29631;49.168;9.848;2022-11-02T06:02:48;97241.44;;;16.18;86.26
40502;BME280;29631;49.168;9.848;2022-11-02T06:05:19;97249.41;;;16.18;86.35
40502;BME280;29631;49.168;9.848;2022-11-02T06:07:45;97215.97;;;15.93;85.74
40502;BME280;29631;49.168;9.848;2022-11-02T06:10:10;97268.75;;;16.25;86.16
40502;BME280;29631;49.168;9.848;2022-11-02T06:12:36;97261.75;;;16.13;86.01
40502;BME280;29631;49.168;9.848;2022-11-02T06:15:02;97236.28;;;15.88;86.06
40502;BME280;29631;49.168;9.848;2022-11-02T06:17:31;97268.22;;;16.05;87.13
40502;BME280;29631;49.168;9.848;2022-11-02T06:20:00;97267.16;;;16.06;86.20
40502;BME280;29631;49.168;9.848;2022-11-02T06:22:26;97265.38;;;16.00;86.25
40502;BME280;29631;49.168;9.848;2022-11-02T06:24:52;97269.09;;;15.99;86.23
40502;BME280;29631;49.168;9.848;2022-11-02T06:27:18;97269.59;;;15.90;86.50
40502;BME280;29631;49.168;9.848;2022-11-02T06:29:44;97277.94;;;15.94;86.59
40502;BME280;29631;49.168;9.848;2022-11-02T06:32:10;97285.63;;;16.01;86.87
40502;BME280;29631;49.168;9.848;2022-11-02T06:34:36;97272.84;;;15.92;86.64
40502;BME280;29631;49.168;9.848;2022-11-02T06:37:01;97287.25;;;16.02;87.15
40502;BME280;29631;49.168;9.848;2022-11-02T06:39:27;97291.81;;;16.13;86.80
40502;BME280;29631;49.168;9.848;2022-11-02T06:41:53;97299.59;;;16.15;87.05
40502;BME280;29631;49.168;9.848;2022-11-02T06:44:18;97298.53;;;16.16;86.54
40502;BME280;29631;49.168;9.848;2022-11-02T06:46:44;97292.28;;;16.10;86.96
40502;BME280;29631;49.168;9.848;2022-11-02T06:49:10;97294.56;;;16.07;87.24
40502;BME280;29631;49.168;9.848;2022-11-02T06:51:36;97286.09;;;15.98;86.92
40502;BME280;29631;49.168;9.848;2022-11-02T06:54:01;97298.28;;;16.06;87.33
40502;BME280;29631;49.168;9.848;2022-11-02T06:56:27;97305.88;;;16.02;86.93
40502;BME280;29631;49.168;9.848;2022-11-02T06:58:53;97335.59;;;16.17;87.09
40502;BME280;29631;49.168;9.848;2022-11-02T07:01:18;97351.81;;;16.27;87.43
40502;BME280;29631;49.168;9.848;2022-11-02T07:03:44;97345.91;;;16.25;87.16
40502;BME280;29631;49.168;9.848;2022-11-02T07:06:10;97300.81;;;15.83;87.76
40502;BME280;29631;49.168;9.848;2022-11-02T07:08:35;97364.13;;;16.28;87.90
40502;BME280;29631;49.168;9.848;2022-11-02T07:11:01;97351.91;;;16.21;86.86
40502;BME280;29631;49.168;9.848;2022-11-02T07:13:27;97358.00;;;16.28;88.14
40502;BME280;29631;49.168;9.848;2022-11-02T07:15:53;97373.97;;;16.28;88.14
40502;BME280;29631;49.168;9.848;2022-11-02T07:18:20;97358.13;;;16.15;88.03
40502;BME280;29631;49.168;9.848;2022-11-02T07:20:46;97358.56;;;16.12;88.37
40502;BME280;29631;49.168;9.848;2022-11-02T07:23:11;97375.94;;;16.14;88.19
40502;BME280;29631;49.168;9.848;2022-11-02T07:25:37;97367.28;;;16.19;88.20
40502;BME280;29631;49.168;9.848;2022-11-02T07:28:03;97364.19;;;16.22;88.50
40502;BME280;29631;49.168;9.848;2022-11-02T07:30:31;97393.13;;;16.36;88.81
40502;BME280;29631;49.168;9.848;2022-11-02T07:32:57;97385.44;;;16.28;88.52
40502;BME280;29631;49.168;9.848;2022-11-02T07:35:23;97386.59;;;16.32;88.60
40502;BME280;29631;49.168;9.848;2022-11-02T07:38:04;97393.91;;;16.37;88.73
40502;BME280;29631;49.168;9.848;2022-11-02T07:40:32;97402.28;;;16.40;88.95
40502;BME280;29631;49.168;9.848;2022-11-02T07:42:59;97403.25;;;16.46;89.16
40502;BME280;29631;49.168;9.848;2022-11-02T07:45:25;97392.22;;;16.42;89.17
40502;BME280;29631;49.168;9.848;2022-11-02T07:47:51;97389.09;;;16.45;88.58
40502;BME280;29631;49.168;9.848;2022-11-02T07:50:20;97403.16;;;16.52;89.17
40502;BME280;29631;49.168;9.848;2022-11-02T07:52:48;97387.63;;;16.49;89.52
40502;BME280;29631;49.168;9.848;2022-11-02T07:55:17;97403.88;;;16.59;89.04
40502;BME280;29631;49.168;9.848;2022-11-02T07:57:58;97412.47;;;16.61;89.17
40502;BME280;29631;49.168;9.848;2022-11-02T08:00:28;97386.81;;;16.49;89.19
40502;BME280;29631;49.168;9.848;2022-11-02T08:02:55;97366.16;;;16.26;89.43
40502;BME280;29631;49.168;9.848;2022-11-02T08:05:22;97409.06;;;16.54;89.61
40502;BME280;29631;49.168;9.848;2022-11-02T08:08:25;97421.72;;;16.59;90.69
40502;BME280;29631;49.168;9.848;2022-11-02T08:10:51;97405.81;;;16.52;89.94
40502;BME280;29631;49.168;9.848;2022-11-02T08:13:22;97399.28;;;16.66;90.55
40502;BME280;29631;49.168;9.848;2022-11-02T08:15:52;97418.69;;;17.02;89.66
40502;BME280;29631;49.168;9.848;2022-11-02T08:18:24;97396.69;;;17.07;89.08
40502;BME280;29631;49.168;9.848;2022-11-02T08:20:50;97410.47;;;17.33;89.30
40502;BME280;29631;49.168;9.848;2022-11-02T08:23:18;97411.22;;;17.51;88.66
40502;BME280;29631;49.168;9.848;2022-11-02T08:25:48;97425.38;;;17.63;88.83
40502;BME280;29631;49.168;9.848;2022-11-02T08:28:24;97426.72;;;17.54;89.27
40502;BME280;29631;49.168;9.848;2022-11-02T08:30:51;97410.50;;;17.45;89.15
40502;BME280;29631;49.168;9.848;2022-11-02T08:33:18;97414.13;;;17.50;89.88
40502;BME280;29631;49.168;9.848;2022-11-02T08:35:46;97426.16;;;17.52;90.06
40502;BME280;29631;49.168;9.848;2022-11-02T08:38:13;97414.19;;;17.44;89.76
40502;BME280;29631;49.168;9.848;2022-11-02T08:40:39;97418.13;;;17.41;90.08
40502;BME280;29631;49.168;9.848;2022-11-02T08:43:11;97427.19;;;17.40;89.80
40502;BME280;29631;49.168;9.848;2022-11-02T08:45:39;97424.78;;;17.50;90.10
40502;BME280;29631;49.168;9.848;2022-11-02T08:48:06;97442.28;;;17.57;90.31
40502;BME280;29631;49.168;9.848;2022-11-02T08:50:32;97419.31;;;17.56;89.86
40502;BME280;29631;49.168;9.848;2022-11-02T08:52:58;97387.38;;;17.27;89.98
40502;BME280;29631;49.168;9.848;2022-11-02T08:55:24;97406.91;;;17.50;90.10
40502;BME280;29631;49.168;9.848;2022-11-02T08:57:52;97436.75;;;17.70;89.69
40502;BME280;29631;49.168;9.848;2022-11-02T09:00:21;97427.00;;;17.64;90.09
40502;BME280;29631;49.168;9.848;2022-11-02T09:03:03;97432.00;;;17.72;89.86
40502;BME280;29631;49.168;9.848;2022-11-02T09:05:54;97413.91;;;17.63;90.68
40502;BME280;29631;49.168;9.848;2022-11-02T09:08:20;97412.16;;;17.68;89.99
40502;BME280;29631;49.168;9.848;2022-11-02T09:10:50;97429.91;;;17.74;90.20
40502;BME280;29631;49.168;9.848;2022-11-02T09:13:18;97412.50;;;17.72;90.01
40502;BME280;29631;49.168;9.848;2022-11-02T09:15:49;97408.56;;;17.74;89.61
40502;BME280;29631;49.168;9.848;2022-11-02T09:18:15;97373.03;;;17.51;89.75
40502;BME280;29631;49.168;9.848;2022-11-02T09:20:40;97416.00;;;17.72;89.87
40502;BME280;29631;49.168;9.848;2022-11-02T09:23:06;97420.84;;;17.75;89.30
40502;BME280;29631;49.168;9.848;2022-11-02T09:25:32;97422.97;;;17.73;89.56
40502;BME280;29631;49.168;9.848;2022-11-02T09:27:58;97424.34;;;17.76;90.00
40502;BME280;29631;49.168;9.848;2022-11-02T09:30:26;97423.28;;;17.65;89.99
40502;BME280;29631;49.168;9.848;2022-11-02T09:32:58;97434.69;;;17.72;89.80
40502;BME280;29631;49.168;9.848;2022-11-02T09:35:27;97443.25;;;17.74;89.96
40502;BME280;29631;49.168;9.848;2022-11-02T09:37:53;97420.72;;;17.59;90.09
40502;BME280;29631;49.168;9.848;2022-11-02T09:40:25;97426.53;;;17.67;89.99
40502;BME280;29631;49.168;9.848;2022-11-02T09:45:33;97456.47;;;17.69;89.57
40502;BME280;29631;49.168;9.848;2022-11-02T09:48:06;97441.97;;;17.65;90.09
40502;BME280;29631;49.168;9.848;2022-11-02T09:53:16;97453.56;;;17.71;89.69
40502;BME280;29631;49.168;9.848;2022-11-02T09:55:50;97445.56;;;17.59;89.85
40502;BME280;29631;49.168;9.848;2022-11-02T09:58:29;97456.94;;;17.66;89.43
40502;BME280;29631;49.168;9.848;2022-11-02T10:04:38;97462.72;;;17.63;89.02
40502;BME280;29631;49.168;9.848;2022-11-02T10:10:25;97463.19;;;17.60;89.72
40502;BME280;29631;49.168;9.848;2022-11-02T10:16:05;97454.13;;;17.61;89.36
40502;BME280;29631;49.168;9.848;2022-11-02T10:18:33;97442.53;;;17.67;89.01
40502;BME280;29631;49.168;9.848;2022-11-02T10:21:13;97449.06;;;17.71;89.53
40502;BME280;29631;49.168;9.848;2022-11-02T10:23:52;97452.44;;;17.78;89.30
40502;BME280;29631;49.168;9.848;2022-11-02T10:26:41;97460.31;;;17.85;88.60
40502;BME280;29631;49.168;9.848;2022-11-02T10:29:41;97451.97;;;17.93;89.38
40502;BME280;29631;49.168;9.848;2022-11-02T10:32:11;97455.78;;;17.97;88.53
40502;BME280;29631;49.168;9.848;2022-11-02T10:34:39;97437.69;;;17.87;89.30
40502;BME280;29631;49.168;9.848;2022-11-02T10:40:06;97453.47;;;18.00;89.03
40502;BME280;29631;49.168;9.848;2022-11-02T10:45:24;97462.88;;;18.03;87.80
40502;BME280;29631;49.168;9.848;2022-11-02T10:48:06;97466.47;;;18.08;88.26
40502;BME280;29631;49.168;9.848;2022-11-02T10:51:10;97453.38;;;18.07;88.63
40502;BME280;29631;49.168;9.848;2022-11-02T10:53:48;97460.22;;;18.14;88.42
40502;BME280;29631;49.168;9.848;2022-11-02T10:56:21;97446.63;;;18.16;87.71
40502;BME280;29631;49.168;9.848;2022-11-02T10:59:13;97453.53;;;18.23;87.67
40502;BME280;29631;49.168;9.848;2022-11-02T11:01:47;97440.63;;;18.20;88.35
40502;BME280;29631;49.168;9.848;2022-11-02T11:04:30;97460.25;;;18.37;87.84
40502;BME280;29631;49.168;9.848;2022-11-02T11:07:02;97438.06;;;18.36;87.55
40502;BME280;29631;49.168;9.848;2022-11-02T11:12:28;97444.09;;;18.55;87.75
40502;BME280;29631;49.168;9.848;2022-11-02T11:15:00;97429.44;;;18.57;87.61
40502;BME280;29631;49.168;9.848;2022-11-02T11:17:31;97428.25;;;18.65;87.51
40502;BME280;29631;49.168;9.848;2022-11-02T11:19:58;97447.19;;;18.75;87.14
40502;BME280;29631;49.168;9.848;2022-11-02T11:22:29;97395.09;;;18.49;87.23
40502;BME280;29631;49.168;9.848;2022-11-02T11:27:48;97460.38;;;18.92;86.57
40502;BME280;29631;49.168;9.848;2022-11-02T11:32:59;97437.47;;;18.96;86.86
40502;BME280;29631;49.168;9.848;2022-11-02T11:35:36;97435.38;;;18.98;86.86
40502;BME280;29631;49.168;9.848;2022-11-02T11:38:23;97445.22;;;19.09;86.19
40502;BME280;29631;49.168;9.848;2022-11-02T11:40:57;97440.34;;;19.06;86.22
40502;BME280;29631;49.168;9.848;2022-11-02T11:43:29;97442.19;;;19.17;86.45
40502;BME280;29631;49.168;9.848;2022-11-02T11:46:04;97441.22;;;19.23;86.46
40502;BME280;29631;49.168;9.848;2022-11-02T11:48:36;97455.94;;;19.37;85.68
40502;BME280;29631;49.168;9.848;2022-11-02T11:51:36;97441.69;;;19.48;85.60
40502;BME280;29631;49.168;9.848;2022-11-02T11:54:24;97434.47;;;19.49;85.33
40502;BME280;29631;49.168;9.848;2022-11-02T11:56:59;97434.63;;;19.59;85.82
40502;BME280;29631;49.168;9.848;2022-11-02T11:59:49;97430.28;;;19.69;85.37
40502;BME280;29631;49.168;9.848;2022-11-02T12:02:25;97414.06;;;19.75;84.99
40502;BME280;29631;49.168;9.848;2022-11-02T12:07:59;97435.19;;;20.05;84.71
40502;BME280;29631;49.168;9.848;2022-11-02T12:22:20;97429.28;;;20.41;84.41
40502;BME280;29631;49.168;9.848;2022-11-02T12:30:24;97391.88;;;20.50;83.03
40502;BME280;29631;49.168;9.848;2022-11-02T12:42:30;97398.25;;;21.09;81.83
40502;BME280;29631;49.168;9.848;2022-11-02T12:47:47;97418.38;;;21.37;80.30
40502;BME280;29631;49.168;9.848;2022-11-02T12:51:11;97410.94;;;21.44;80.12
40502;BME280;29631;49.168;9.848;2022-11-02T12:56:18;97377.25;;;21.53;79.54
40502;BME280;29631;49.168;9.848;2022-11-02T12:58:45;97392.34;;;21.59;79.39
40502;BME280;29631;49.168;9.848;2022-11-02T13:01:36;97376.44;;;21.53;78.31
40502;BME280;29631;49.168;9.848;2022-11-02T13:04:30;97389.41;;;21.61;78.59
40502;BME280;29631;49.168;9.848;2022-11-02T13:07:03;97390.00;;;21.68;78.76
40502;BME280;29631;49.168;9.848;2022-11-02T13:10:02;97388.31;;;21.93;78.78
40502;BME280;29631;49.168;9.848;2022-11-02T13:12:31;97379.06;;;22.62;77.48
40502;BME280;29631;49.168;9.848;2022-11-02T13:15:02;97369.38;;;23.27;75.57
40502;BME280;29631;49.168;9.848;2022-11-02T13:17:49;97369.97;;;23.78;74.58
40502;BME280;29631;49.168;9.848;2022-11-02T13:20:38;97367.47;;;24.21;73.37
40502;BME280;29631;49.168;9.848;2022-11-02T13:29:01;97378.16;;;25.29;72.43
40502;BME280;29631;49.168;9.848;2022-11-02T13:31:38;97360.78;;;25.40;72.49
40502;BME280;29631;49.168;9.848;2022-11-02T13:34:11;97338.56;;;25.48;71.99
40502;BME280;29631;49.168;9.848;2022-11-02T13:36:39;97359.72;;;25.79;71.78
40502;BME280;29631;49.168;9.848;2022-11-02T13:39:19;97372.19;;;26.04;71.03
40502;BME280;29631;49.168;9.848;2022-11-02T13:48:02;97375.72;;;25.28;72.30
40502;BME280;29631;49.168;9.848;2022-11-02T13:50:48;97375.34;;;24.96;73.11
40502;BME280;29631;49.168;9.848;2022-11-02T13:53:25;97371.41;;;24.69;73.60
40502;BME280;29631;49.168;9.848;2022-11-02T13:55:57;97375.47;;;24.61;74.04
40502;BME280;29631;49.168;9.848;2022-11-02T13:58:46;97373.66;;;24.42;74.02
40502;BME280;29631;49.168;9.848;2022-11-02T14:01:17;97368.78;;;24.39;74.19
40502;BME280;29631;49.168;9.848;2022-11-02T14:03:56;97363.66;;;24.37;73.69
40502;BME280;29631;49.168;9.848;2022-11-02T14:06:25;97359.06;;;24.38;74.23
40502;BME280;29631;49.168;9.848;2022-11-02T14:08:57;97368.22;;;24.57;73.49
40502;BME280;29631;49.168;9.848;2022-11-02T14:19:24;97363.81;;;24.76;73.03
40502;BME280;29631;49.168;9.848;2022-11-02T14:35:25;97353.50;;;23.60;73.15
40502;BME280;29631;49.168;9.848;2022-11-02T14:38:21;97372.63;;;23.58;73.52
40502;BME280;29631;49.168;9.848;2022-11-02T14:43:57;97353.22;;;23.27;73.28
40502;BME280;29631;49.168;9.848;2022-11-02T14:46:37;97371.22;;;23.31;73.62
40502;BME280;29631;49.168;9.848;2022-11-02T14:49:27;97353.47;;;23.10;73.49
40502;BME280;29631;49.168;9.848;2022-11-02T14:57:40;97344.47;;;22.85;73.34
40502;BME280;29631;49.168;9.848;2022-11-02T15:02:42;97349.75;;;22.60;72.84
40502;BME280;29631;49.168;9.848;2022-11-02T15:05:28;97355.63;;;22.52;72.76
40502;BME280;29631;49.168;9.848;2022-11-02T15:08:22;97329.22;;;22.34;73.30
40502;BME280;29631;49.168;9.848;2022-11-02T15:10:49;97337.78;;;22.31;72.91
40502;BME280;29631;49.168;9.848;2022-11-02T15:23:54;97352.97;;;22.11;72.67
40502;BME280;29631;49.168;9.848;2022-11-02T15:29:03;97340.28;;;21.96;72.75
40502;BME280;29631;49.168;9.848;2022-11-02T15:31:33;97358.31;;;22.01;72.87
40502;BME280;29631;49.168;9.848;2022-11-02T15:34:08;97337.56;;;21.92;73.15
40502;BME280;29631;49.168;9.848;2022-11-02T15:36:37;97326.44;;;21.78;72.81
40502;BME280;29631;49.168;9.848;2022-11-02T15:39:08;97332.34;;;21.75;73.15
40502;BME280;29631;49.168;9.848;2022-11-02T15:42:00;97324.47;;;21.64;72.90
40502;BME280;29631;49.168;9.848;2022-11-02T15:54:00;97345.06;;;21.27;73.50
40502;BME280;29631;49.168;9.848;2022-11-02T15:56:36;97334.16;;;21.07;72.97